createdAt,value
2022-10-12T00:02:38.081Z,65.23
2022-10-12T00:05:43.980Z,65.30
2022-10-12T00:08:51.625Z,65.08
2022-10-12T00:11:57.490Z,65.23
2022-10-12T00:15:03.740Z,65.40
2022-10-12T00:18:10.177Z,65.59
2022-10-12T00:21:18.252Z,65.91
2022-10-12T00:24:24.160Z,66.10
2022-10-12T00:27:30.299Z,66.12
2022-10-12T00:30:41.020Z,66.55
2022-10-12T00:33:48.204Z,66.36
2022-10-12T00:36:56.402Z,66.19
2022-10-12T00:40:02.553Z,65.93
2022-10-12T00:43:29.649Z,65.73
2022-10-12T00:46:42.662Z,65.89
2022-10-12T00:49:51.684Z,65.79
2022-10-12T00:53:03.296Z,65.84
2022-10-12T00:56:14.462Z,66.03
2022-10-12T00:59:23.787Z,66.11
2022-10-12T01:02:33.474Z,66.45
2022-10-12T01:05:42.755Z,66.93
2022-10-12T01:08:49.880Z,66.97
2022-10-12T01:11:57.857Z,66.71
2022-10-12T01:15:04.334Z,66.62
2022-10-12T01:18:16.063Z,66.68
2022-10-12T01:21:23.895Z,66.54
2022-10-12T01:24:52.026Z,66.81
2022-10-12T01:28:03.432Z,66.68
2022-10-12T01:31:15.818Z,66.81
2022-10-12T01:34:29.697Z,67.02
2022-10-12T01:37:47.910Z,66.99
2022-10-12T01:41:03.348Z,66.85
2022-10-12T01:44:09.498Z,66.53
2022-10-12T01:47:16.993Z,66.26
2022-10-12T01:50:28.241Z,66.31
2022-10-12T01:53:41.807Z,66.52
2022-10-12T01:56:55.539Z,66.70
2022-10-12T02:00:08.280Z,66.55
2022-10-12T02:03:22.184Z,66.70
2022-10-12T02:06:33.912Z,66.72
2022-10-12T02:09:41.346Z,66.96
2022-10-12T02:12:50.937Z,66.77
2022-10-12T02:16:00.247Z,66.57
2022-10-12T02:19:10.913Z,66.38
2022-10-12T02:22:18.992Z,66.07
2022-10-12T02:25:27.744Z,66.18
2022-10-12T02:28:37.514Z,66.14
2022-10-12T02:31:53.730Z,66.09
2022-10-12T02:35:02.942Z,65.65
2022-10-12T02:38:15.861Z,65.68
2022-10-12T02:41:28.062Z,65.75
2022-10-12T02:44:38.519Z,65.59
2022-10-12T02:47:47.261Z,65.47
2022-10-12T02:50:57.118Z,65.34
2022-10-12T02:54:04.389Z,65.48
2022-10-12T02:57:11.162Z,65.58
2022-10-12T03:00:19.517Z,65.35
2022-10-12T03:03:25.702Z,65.56
2022-10-12T03:06:31.746Z,65.49
2022-10-12T03:09:37.816Z,65.41
2022-10-12T03:12:49.106Z,65.28
2022-10-12T03:16:02.071Z,65.09
2022-10-12T03:19:08.275Z,64.97
2022-10-12T03:22:14.316Z,64.89
2022-10-12T03:25:20.456Z,64.83
2022-10-12T03:28:26.666Z,64.67
2022-10-12T03:31:31.323Z,64.97
2022-10-12T03:34:37.381Z,65.13
2022-10-12T03:37:43.535Z,65.16
2022-10-12T03:40:49.980Z,65.31
2022-10-12T03:43:56.015Z,65.43
2022-10-12T03:47:02.071Z,65.58
2022-10-12T03:50:09.554Z,65.89
2022-10-12T03:53:15.724Z,66.16
2022-10-12T03:56:21.759Z,65.94
2022-10-12T03:59:28.636Z,65.69
2022-10-12T04:02:34.704Z,65.56
2022-10-12T04:05:41.055Z,65.03
2022-10-12T04:08:49.929Z,65.36
2022-10-12T04:11:57.088Z,65.28
2022-10-12T04:15:03.448Z,65.42
2022-10-12T04:18:08.045Z,65.27
2022-10-12T04:21:16.479Z,65.33
2022-10-12T04:24:22.607Z,65.20
2022-10-12T04:27:28.800Z,64.68
2022-10-12T04:30:34.891Z,64.81
2022-10-12T04:33:41.161Z,64.81
2022-10-12T04:36:47.275Z,64.74
2022-10-12T04:39:53.380Z,64.74
2022-10-12T04:42:59.435Z,64.84
2022-10-12T04:46:05.645Z,64.74
2022-10-12T04:49:11.780Z,64.81
2022-10-12T04:52:17.750Z,64.82
2022-10-12T04:55:24.062Z,64.96
2022-10-12T04:58:29.006Z,64.73
2022-10-12T05:01:35.165Z,64.72
2022-10-12T05:04:41.365Z,64.28
2022-10-12T05:07:47.656Z,64.38
2022-10-12T05:10:52.281Z,64.47
2022-10-12T05:13:58.493Z,64.55
2022-10-12T05:17:04.674Z,64.24
2022-10-12T05:20:13.498Z,64.05
2022-10-12T05:23:19.571Z,63.99
2022-10-12T05:26:25.914Z,64.10
2022-10-12T05:29:30.400Z,64.13
2022-10-12T05:32:36.833Z,64.39
2022-10-12T05:35:47.481Z,64.16
2022-10-12T05:38:55.067Z,64.36
2022-10-12T05:42:01.179Z,64.32
2022-10-12T05:45:08.947Z,64.44
2022-10-12T05:48:15.311Z,64.53
2022-10-12T05:51:19.886Z,64.91
2022-10-12T05:54:26.153Z,65.19
2022-10-12T05:57:32.420Z,65.22
2022-10-12T06:00:39.051Z,65.08
2022-10-12T06:03:45.202Z,65.06
2022-10-12T06:06:51.365Z,65.25
2022-10-12T06:09:57.461Z,65.50
2022-10-12T06:13:03.850Z,65.88
2022-10-12T06:16:10.600Z,66.10
2022-10-12T06:19:16.780Z,66.15
2022-10-12T06:22:22.823Z,66.17
2022-10-12T06:25:29.224Z,66.70
2022-10-12T06:28:35.573Z,67.19
2022-10-12T06:31:40.219Z,67.37
2022-10-12T06:34:46.959Z,67.45
2022-10-12T06:37:54.016Z,67.10
2022-10-12T06:41:00.720Z,67.01
2022-10-12T06:44:07.136Z,67.33
2022-10-12T06:47:13.315Z,67.46
2022-10-12T06:50:19.642Z,67.36
2022-10-12T06:53:25.684Z,67.54
2022-10-12T06:56:32.263Z,67.76
2022-10-12T06:59:38.384Z,67.97
2022-10-12T07:02:44.928Z,67.83
2022-10-12T07:05:51.020Z,67.49
2022-10-12T07:08:58.050Z,67.14
2022-10-12T07:12:04.193Z,66.66
2022-10-12T07:15:11.928Z,66.54
2022-10-12T07:18:17.964Z,66.77
2022-10-12T07:21:24.062Z,66.67
2022-10-12T07:24:36.529Z,66.69
2022-10-12T07:27:42.559Z,67.20
2022-10-12T07:30:48.870Z,66.85
2022-10-12T07:33:53.352Z,67.01
2022-10-12T07:37:00.130Z,67.25
2022-10-12T07:40:07.495Z,67.20
2022-10-12T07:43:16.063Z,67.60
2022-10-12T07:46:22.691Z,67.77
2022-10-12T07:49:28.953Z,67.92
2022-10-12T07:52:35.808Z,67.93
2022-10-12T07:55:42.052Z,67.98
2022-10-12T07:58:51.357Z,68.04
2022-10-12T08:01:57.570Z,68.07
2022-10-12T08:05:03.764Z,68.28
2022-10-12T08:08:10.013Z,68.31
2022-10-12T08:11:14.782Z,68.50
2022-10-12T08:14:21.011Z,68.82
2022-10-12T08:17:27.538Z,68.51
2022-10-12T08:20:33.783Z,68.90
2022-10-12T08:23:40.239Z,69.03
2022-10-12T08:26:46.318Z,68.95
2022-10-12T08:29:52.450Z,68.68
2022-10-12T08:32:58.597Z,68.40
2022-10-12T08:36:06.691Z,68.78
2022-10-12T08:39:12.840Z,68.53
2022-10-12T08:42:35.367Z,68.12
2022-10-12T08:45:49.192Z,67.93
2022-10-12T08:49:02.977Z,67.26
2022-10-12T08:52:22.818Z,66.60
2022-10-12T08:55:38.094Z,67.21
2022-10-12T08:58:45.636Z,66.39
2022-10-12T09:02:04.228Z,65.76
2022-10-12T09:05:16.275Z,67.02
2022-10-12T09:08:33.591Z,66.81
2022-10-12T09:11:53.167Z,65.79
2022-10-12T09:15:03.668Z,63.27
2022-10-12T09:18:20.330Z,62.28
2022-10-12T09:21:28.540Z,60.72
2022-10-12T09:24:39.398Z,61.31
2022-10-12T09:27:48.286Z,60.88
2022-10-12T09:31:17.984Z,58.66
2022-10-12T09:34:24.843Z,58.08
2022-10-12T09:37:33.704Z,62.10
2022-10-12T09:40:40.478Z,61.34
2022-10-12T09:43:46.905Z,61.47
2022-10-12T09:46:57.516Z,58.58
2022-10-12T09:50:05.750Z,58.82
2022-10-12T09:53:28.857Z,58.99
2022-10-12T09:56:41.800Z,60.76
2022-10-12T09:59:48.486Z,62.40
2022-10-12T10:02:55.712Z,61.30
2022-10-12T10:06:07.504Z,60.84
2022-10-12T10:09:33.587Z,59.53
2022-10-12T10:12:44.231Z,60.72
2022-10-12T10:15:52.086Z,62.73
2022-10-12T10:19:03.148Z,61.56
2022-10-12T10:22:09.379Z,61.08
2022-10-12T10:25:21.071Z,60.00
2022-10-12T10:28:31.841Z,58.33
2022-10-12T10:31:38.078Z,60.80
2022-10-12T10:34:43.820Z,61.05
2022-10-12T10:37:50.679Z,62.14
2022-10-12T10:40:58.685Z,61.18
2022-10-12T10:44:06.348Z,59.65
2022-10-12T10:47:14.659Z,57.66
2022-10-12T10:50:31.897Z,56.33
2022-10-12T10:53:49.832Z,57.31
2022-10-12T10:57:03.383Z,55.00
2022-10-12T11:03:52.386Z,56.74
2022-10-12T11:07:03.027Z,58.17
2022-10-12T11:10:22.015Z,58.75
2022-10-12T11:13:34.005Z,59.08
2022-10-12T11:16:45.097Z,57.42
2022-10-12T11:19:57.064Z,54.90
2022-10-12T11:23:10.810Z,55.41
2022-10-12T11:26:24.154Z,55.80
2022-10-12T11:29:30.823Z,54.57
2022-10-12T11:32:41.890Z,53.43
2022-10-12T11:35:49.015Z,54.28
2022-10-12T11:39:05.895Z,56.60
2022-10-12T11:42:22.147Z,55.07
2022-10-12T11:45:31.838Z,53.26
2022-10-12T11:48:43.431Z,54.46
2022-10-12T11:51:52.627Z,55.42
2022-10-12T11:55:09.508Z,52.63
2022-10-12T11:58:31.553Z,54.04
2022-10-12T12:02:04.791Z,53.35
2022-10-12T12:05:16.685Z,50.92
2022-10-12T12:09:19.212Z,51.64
2022-10-12T12:12:27.696Z,53.73
2022-10-12T12:15:34.184Z,52.78
2022-10-12T12:19:13.327Z,53.79
2022-10-12T12:22:49.156Z,51.73
2022-10-12T12:26:16.803Z,51.52
2022-10-12T12:29:30.033Z,52.99
2022-10-12T12:32:49.557Z,53.92
2022-10-12T12:35:58.552Z,53.72
2022-10-12T12:39:06.090Z,53.08
2022-10-12T12:42:12.761Z,52.44
2022-10-12T12:45:54.476Z,52.51
2022-10-12T12:49:26.839Z,53.52
2022-10-12T12:52:35.361Z,52.24
2022-10-12T12:56:04.561Z,53.67
2022-10-12T12:59:35.108Z,53.20
2022-10-12T13:03:04.650Z,54.02
2022-10-12T13:06:40.263Z,53.30
2022-10-12T13:10:08.951Z,51.96
2022-10-12T13:13:44.308Z,53.18
2022-10-12T13:17:31.126Z,52.86
2022-10-12T13:20:28.190Z,54.27
2022-10-12T13:23:35.053Z,54.10
2022-10-12T13:26:42.324Z,52.73
2022-10-12T13:29:55.014Z,53.78
2022-10-12T13:33:07.778Z,53.97
2022-10-12T13:36:19.511Z,54.05
2022-10-12T13:39:25.739Z,53.53
2022-10-12T13:42:36.038Z,53.01
2022-10-12T13:45:48.198Z,53.44
2022-10-12T13:48:59.795Z,53.63
2022-10-12T13:52:31.821Z,53.60
2022-10-12T13:55:38.716Z,54.45
2022-10-12T13:58:45.113Z,53.94
2022-10-12T14:02:00.902Z,54.46
2022-10-12T14:05:08.434Z,53.12
2022-10-12T14:08:20.729Z,54.89
2022-10-12T14:11:27.915Z,54.51
2022-10-12T14:14:37.722Z,54.59
2022-10-12T14:17:47.798Z,54.32
2022-10-12T14:21:05.735Z,53.60
2022-10-12T14:24:12.741Z,54.31
2022-10-12T14:27:26.116Z,54.16
2022-10-12T14:30:34.435Z,54.36
2022-10-12T14:33:40.582Z,54.55
2022-10-12T14:36:45.259Z,54.64
2022-10-12T14:39:59.519Z,54.51
2022-10-12T14:43:09.582Z,55.36
2022-10-12T14:46:15.716Z,55.64
2022-10-12T14:49:22.306Z,55.27
2022-10-12T14:52:35.160Z,55.48
2022-10-12T14:55:42.700Z,55.53
2022-10-12T14:58:49.607Z,55.02
2022-10-12T15:01:55.841Z,55.72
2022-10-12T15:05:02.537Z,55.04
2022-10-12T15:08:09.387Z,55.17
2022-10-12T15:11:16.963Z,55.30
2022-10-12T15:14:23.044Z,55.18
2022-10-12T15:17:27.535Z,55.51
2022-10-12T15:20:34.251Z,55.19
2022-10-12T15:23:40.498Z,55.55
2022-10-12T15:26:46.833Z,56.10
2022-10-12T15:29:53.393Z,56.35
2022-10-12T15:32:59.642Z,56.54
2022-10-12T15:36:05.754Z,56.99
2022-10-12T15:39:10.334Z,57.29
2022-10-12T15:42:16.418Z,57.39
2022-10-12T15:45:22.691Z,58.76
2022-10-12T15:48:29.189Z,59.22
2022-10-12T15:51:39.202Z,60.67
2022-10-12T15:54:48.771Z,61.28
2022-10-12T15:57:56.215Z,61.71
2022-10-12T16:01:02.386Z,62.01
2022-10-12T16:04:08.055Z,63.68
2022-10-12T16:07:15.876Z,65.09
2022-10-12T16:10:24.492Z,62.96
2022-10-12T16:13:30.574Z,62.24
2022-10-12T16:16:36.706Z,61.76
2022-10-12T16:19:42.856Z,61.60
2022-10-12T16:22:51.147Z,59.91
2022-10-12T16:25:57.655Z,59.89
2022-10-12T16:29:03.803Z,60.94
2022-10-12T16:32:08.257Z,61.75
2022-10-12T16:35:15.328Z,62.16
2022-10-12T16:38:21.646Z,64.48
2022-10-12T16:41:30.412Z,65.12
2022-10-12T16:44:40.073Z,63.90
2022-10-12T16:47:44.693Z,63.01
2022-10-12T16:50:50.879Z,62.61
2022-10-12T16:53:55.386Z,62.05
2022-10-12T16:57:01.923Z,61.73
2022-10-12T17:00:10.681Z,61.09
2022-10-12T17:03:16.958Z,60.70
2022-10-12T17:06:23.108Z,59.57
2022-10-12T17:09:27.955Z,59.85
2022-10-12T17:12:35.462Z,60.62
2022-10-12T17:15:44.071Z,61.76
2022-10-12T17:18:50.206Z,63.89
2022-10-12T17:21:59.665Z,64.71
2022-10-12T17:25:06.385Z,63.93
2022-10-12T17:28:12.467Z,63.17
2022-10-12T17:31:18.886Z,62.69
2022-10-12T17:34:26.676Z,62.36
2022-10-12T17:37:32.837Z,61.89
2022-10-12T17:40:39.825Z,61.47
2022-10-12T17:43:46.475Z,61.23
2022-10-12T17:46:52.680Z,60.91
2022-10-12T17:49:57.228Z,60.72
2022-10-12T17:53:03.317Z,60.63
2022-10-12T17:56:14.043Z,60.27
2022-10-12T17:59:21.215Z,60.13
2022-10-12T18:02:27.577Z,59.17
2022-10-12T18:05:34.867Z,59.52
2022-10-12T18:08:41.255Z,60.95
2022-10-12T18:11:47.474Z,63.37
2022-10-12T18:14:51.925Z,64.20
2022-10-12T18:17:58.088Z,63.80
2022-10-12T18:21:08.246Z,62.92
2022-10-12T18:24:17.662Z,62.65
2022-10-12T18:27:23.926Z,62.64
2022-10-12T18:30:30.054Z,62.51
2022-10-12T18:33:36.721Z,62.29
2022-10-12T18:36:42.999Z,62.17
2022-10-12T18:39:47.503Z,62.24
2022-10-12T18:42:53.879Z,62.04
2022-10-12T18:45:59.914Z,61.38
2022-10-12T18:49:08.534Z,61.07
2022-10-12T18:52:14.557Z,60.90
2022-10-12T18:55:20.861Z,60.67
2022-10-12T18:58:25.398Z,61.00
2022-10-12T19:01:33.187Z,61.29
2022-10-12T19:04:39.349Z,60.78
2022-10-12T19:07:45.467Z,60.43
2022-10-12T19:10:51.566Z,60.37
2022-10-12T19:14:00.211Z,60.30
2022-10-12T19:17:06.322Z,60.22
2022-10-12T19:20:13.792Z,60.27
2022-10-12T19:23:19.901Z,60.14
2022-10-12T19:26:28.545Z,60.06
2022-10-12T19:29:34.678Z,60.09
2022-10-12T19:32:41.484Z,59.94
2022-10-12T19:35:47.619Z,60.58
2022-10-12T19:38:55.972Z,59.90
2022-10-12T19:42:02.117Z,59.83
2022-10-12T19:45:09.742Z,59.73
2022-10-12T19:48:15.971Z,59.78
2022-10-12T19:51:24.001Z,59.82
2022-10-12T19:54:34.076Z,59.79
2022-10-12T19:57:43.202Z,59.75
2022-10-12T20:00:49.489Z,59.77
2022-10-12T20:03:53.998Z,59.80
2022-10-12T20:07:00.142Z,59.82
2022-10-12T20:10:07.465Z,58.75
2022-10-12T20:13:13.594Z,59.19
2022-10-12T20:16:21.194Z,60.68
2022-10-12T20:19:27.503Z,63.41
2022-10-12T20:22:32.005Z,64.49
2022-10-12T20:25:43.177Z,63.84
2022-10-12T20:28:50.190Z,62.96
2022-10-12T20:31:56.391Z,62.80
2022-10-12T20:35:02.444Z,62.59
2022-10-12T20:38:08.507Z,62.46
2022-10-12T20:41:17.292Z,62.31
2022-10-12T20:44:23.607Z,62.02
2022-10-12T20:47:28.798Z,62.05
2022-10-12T20:50:35.364Z,62.13
2022-10-12T20:53:42.171Z,62.29
2022-10-12T20:56:52.086Z,62.56
2022-10-12T20:59:58.306Z,62.69
2022-10-12T21:03:04.461Z,62.54
2022-10-12T21:06:12.913Z,63.09
2022-10-12T21:09:18.895Z,62.63
2022-10-12T21:12:25.095Z,62.63
2022-10-12T21:15:31.311Z,62.13
2022-10-12T21:18:38.440Z,61.76
2022-10-12T21:21:46.720Z,61.37
2022-10-12T21:24:53.379Z,61.26
2022-10-12T21:27:59.628Z,61.23
2022-10-12T21:31:05.936Z,61.18
2022-10-12T21:34:11.411Z,61.54
2022-10-12T21:37:17.638Z,61.83
2022-10-12T21:40:24.475Z,61.87
2022-10-12T21:43:30.586Z,61.92
2022-10-12T21:46:37.584Z,61.96
2022-10-12T21:49:43.698Z,62.07
2022-10-12T21:52:50.230Z,62.19
2022-10-12T21:55:56.676Z,62.41
2022-10-12T21:59:01.959Z,62.11
2022-10-12T22:02:08.044Z,62.16
2022-10-12T22:05:14.108Z,62.12
2022-10-12T22:08:20.229Z,61.88
2022-10-12T22:11:27.379Z,61.58
2022-10-12T22:14:33.611Z,61.41
2022-10-12T22:17:39.762Z,61.29
2022-10-12T22:20:45.776Z,61.15
2022-10-12T22:23:51.896Z,61.19
2022-10-12T22:26:58.001Z,61.07
2022-10-12T22:30:04.610Z,61.43
2022-10-12T22:33:10.729Z,61.15
2022-10-12T22:36:18.019Z,61.59
2022-10-12T22:39:24.235Z,61.18
2022-10-12T22:42:30.380Z,61.15
2022-10-12T22:45:36.461Z,61.37
2022-10-12T22:48:42.984Z,61.27
2022-10-12T22:51:49.208Z,61.33
2022-10-12T22:54:55.212Z,61.82
2022-10-12T22:58:01.328Z,62.45
2022-10-12T23:01:09.165Z,62.45
2022-10-12T23:04:15.506Z,62.40
2022-10-12T23:07:19.986Z,61.92
2022-10-12T23:10:26.655Z,61.69
2022-10-12T23:13:32.847Z,61.42
2022-10-12T23:16:38.923Z,61.22
2022-10-12T23:19:45.082Z,60.95
2022-10-12T23:22:51.164Z,60.85
2022-10-12T23:26:03.499Z,60.88
2022-10-12T23:29:09.642Z,60.68
2022-10-12T23:32:16.683Z,60.84
2022-10-12T23:35:22.995Z,60.94
2022-10-12T23:38:31.768Z,60.91
2022-10-12T23:41:37.844Z,60.92
2022-10-12T23:44:43.969Z,61.21
2022-10-12T23:47:50.071Z,61.34
2022-10-12T23:50:56.703Z,61.28
2022-10-12T23:54:03.142Z,61.21
2022-10-12T23:57:22.548Z,61.33
